Flight Track Log - Related Links

Times and Time Zones

All times are in EDT time to prevent confusion due to time zone crossing. See the SKW5606 flight status page for this flight to view local times or setup timezone preferences in your user account.

Time Position Orientation Groundspeed Altitude Reporting Facility
EDT Latitude Longitude Course Direction KTS MPH feet Rate Location/Type
Mon 12:20:11 PM 41.0500 -73.7000 275° West 163 188 1,200  Level New York TRACON
Mon 12:21:11 PM 41.0333 -73.7333 236° Southwest 197 227 3,700 2,350 Climbing New York TRACON
Mon 12:22:11 PM 41.0833 -73.7667 333° Northwest 245 282 5,900 2,200 Climbing New York TRACON
Mon 12:23:00 PM 41.0968 -74.1842 275° West  Level FlightAware Approximate
Mon 12:23:11 PM 41.1167 -73.8500 298° West 257 296 8,100  Level New York TRACON
Mon 12:24:00 PM 41.1053 -74.3066 275° West  Level FlightAware Approximate
Mon 12:24:01 PM 41.1406 -73.9175 295° West 271 312 9,600  Level New York Center
Mon 12:24:58 PM 41.1772 -74.0211 295° West 283 326 12,000 2,051 Climbing New York Center
Mon 12:25:00 PM 41.1140 -74.4290 275° West  Level FlightAware Approximate
Mon 12:25:58 PM 41.1958 -74.1047 287° West 307 353 13,600  Level New York Center
Mon 12:26:59 PM 41.1836 -74.2364 263° West 316 364 14,800 1,230 Climbing New York Center
Mon 12:28:00 PM 41.1739 -74.3517 264° West 353 406 16,100 1,636 Climbing New York Center
Mon 12:29:00 PM 41.1592 -74.4969 262° West 364 419 18,100 1,450 Climbing New York Center
Mon 12:30:00 PM 41.1761 -74.6108 281° West 356 410 19,000 1,240 Climbing New York Center
Mon 12:31:01 PM 41.2197 -74.7431 294° West 361 415 20,600 1,373 Climbing New York Center
Mon 12:31:58 PM 41.2636 -74.8642 296° West 366 421 21,700 1,179 Climbing New York Center
Mon 12:32:58 PM 41.3094 -74.9775 298° West 371 427 22,900 1,091 Climbing New York Center
Mon 12:33:59 PM 41.4050 -75.0472 291° West 363 418 23,900 885 Climbing New York Center
Mon 12:34:00 PM 41.3453 -75.1006 291° West  Level FlightAware Approximate
Mon 12:35:00 PM 41.4961 -75.1194 329° Northwest 375 432 24,700  Level New York Center
Mon 12:36:00 PM 41.5478 -75.2419 299° West 366 421 25,000 153 Climbing New York Center
Mon 12:36:58 PM 41.6014 -75.3647 300° West 372 428 25,000 356 Level New York Center
Mon 12:37:58 PM 41.6528 -75.4822 300° West 377 434 25,700 793 Climbing New York Center
Mon 12:38:59 PM 41.7083 -75.6056 301° West 377 434 26,600 984 Climbing New York Center
Mon 12:40:00 PM 41.7619 -75.7206 302° West 377 434 27,700 992 Climbing New York Center
Mon 12:41:00 PM 41.8025 -75.8433 294° West 372 428 28,600 814 Climbing New York Center
Mon 12:41:58 PM 41.8322 -75.9764 287° West 367 422 29,300 661 Climbing New York Center
Mon 12:42:58 PM 41.8594 -76.1094 285° West 367 422 29,900 595 Climbing New York Center
Mon 12:43:59 PM 41.8869 -76.2397 286° West 367 422 30,500 590 Climbing New York Center
Mon 12:45:00 PM 41.9147 -76.3592 287° West 367 422 31,100 526 Climbing New York Center
Mon 12:46:50 PM 41.9711 -76.6308 286° West 379 436 32,000 318 Climbing Cleveland Center
Mon 12:47:50 PM 41.9986 -76.7606 286° West 369 425 32,000  Level Cleveland Center
Mon 12:48:50 PM 42.0256 -76.8875 286° West 364 419 32,000  Level Cleveland Center
Mon 12:49:50 PM 42.0506 -77.0147 285° West 359 413 32,000  Level Cleveland Center
Mon 12:50:50 PM 42.0775 -77.1419 286° West 359 413 32,000  Level Cleveland Center
Mon 12:51:51 PM 42.0994 -77.2528 285° West 359 413 32,000  Level Cleveland Center
Mon 12:52:50 PM 42.1258 -77.3803 286° West 359 413 32,000  Level Cleveland Center
Mon 12:53:51 PM 42.1525 -77.5078 286° West 359 413 32,000  Level Cleveland Center
Mon 12:54:50 PM 42.1764 -77.6272 285° West 354 407 32,000  Level Cleveland Center
Mon 12:55:50 PM 42.2025 -77.7550 285° West 354 407 32,000  Level Cleveland Center
Mon 12:56:50 PM 42.2264 -77.8828 284° West 354 407 32,000  Level Cleveland Center
Mon 12:57:51 PM 42.2500 -78.0081 284° West 354 407 32,000  Level Cleveland Center
Mon 12:58:50 PM 42.2778 -78.1333 287° West 354 407 32,000  Level Cleveland Center
Mon 12:59:50 PM 42.3014 -78.2614 284° West 354 407 32,000  Level Cleveland Center
Mon 01:00:50 PM 42.3247 -78.3869 284° West 354 407 32,000  Level Cleveland Center
Mon 01:01:50 PM 42.3500 -78.5125 285° West 354 407 32,000  Level Cleveland Center
Mon 01:02:50 PM 42.3731 -78.6383 284° West 354 407 32,000  Level Cleveland Center
Mon 01:03:50 PM 42.3981 -78.7669 285° West 354 407 32,000  Level Cleveland Center
Mon 01:04:50 PM 42.4208 -78.8928 284° West 354 407 32,000  Level Cleveland Center
Mon 01:05:50 PM 42.4433 -79.0217 283° West 354 407 32,000  Level Cleveland Center
Mon 01:06:50 PM 42.4700 -79.1533 285° West 354 407 32,000  Level Cleveland Center
Mon 01:07:50 PM 42.4903 -79.2822 282° West 354 407 32,000  Level Cleveland Center
Mon 01:08:50 PM 42.4981 -79.4117 275° West 354 407 32,000  Level Cleveland Center
Mon 01:09:51 PM 42.5056 -79.5494 274° West 354 407 32,000  Level Cleveland Center
Mon 01:10:50 PM 42.5108 -79.6847 273° West 354 407 32,000  Level Cleveland Center
Mon 01:11:50 PM 42.5181 -79.8142 274° West 354 407 32,000  Level Cleveland Center
Mon 01:12:50 PM 42.5294 -79.9519 276° West 359 413 32,000  Level Cleveland Center
Mon 01:13:50 PM 42.5300 -80.0872 270° West 364 419 32,000  Level Cleveland Center
Mon 01:14:50 PM 42.5306 -80.2225 270° West 364 419 32,000  Level Cleveland Center
Mon 01:15:50 PM 42.4786 -80.3411 239° Southwest 356 410 32,000  Level Cleveland Center
Mon 01:16:50 PM 42.4289 -80.4622 241° Southwest 373 429 32,000  Level Cleveland Center
Mon 01:17:50 PM 42.4497 -80.5858 283° West 334 384 32,000  Level Cleveland Center
Mon 01:18:50 PM 42.5081 -80.6958 306° West 332 382 32,000  Level Cleveland Center
Mon 01:19:50 PM 42.5456 -80.8142 293° West 344 396 32,000  Level Cleveland Center
Mon 01:20:50 PM 42.5639 -80.9581 280° West 346 398 32,000  Level Cleveland Center
Mon 01:21:50 PM 42.5694 -81.0964 273° West 358 412 32,000  Level Cleveland Center
Mon 01:22:50 PM 42.5731 -81.2231 272° West 358 412 32,000  Level Cleveland Center
Mon 01:23:50 PM 42.5764 -81.3558 272° West 353 406 32,000  Level Cleveland Center
Mon 01:24:50 PM 42.5881 -81.4856 277° West 348 400 32,000  Level Cleveland Center
Mon 01:25:50 PM 42.6139 -81.6131 285° West 353 406 32,000  Level Cleveland Center
Mon 01:26:50 PM 42.6336 -81.7403 282° West 353 406 32,000  Level Cleveland Center
Mon 01:27:50 PM 42.6572 -81.8678 284° West 353 406 32,000  Level Cleveland Center
Mon 01:28:50 PM 42.6786 -81.9925 283° West 353 406 32,000  Level Cleveland Center
Mon 01:29:50 PM 42.7000 -82.1200 283° West 353 406 32,000  Level Cleveland Center
Mon 01:30:50 PM 42.7211 -82.2478 283° West 353 406 32,000  Level Cleveland Center
Mon 01:31:50 PM 42.7442 -82.3756 284° West 353 406 32,000  Level Cleveland Center
Mon 01:32:50 PM 42.7653 -82.5033 283° West 353 406 32,000  Level Cleveland Center
Mon 01:33:50 PM 42.7858 -82.6314 282° West 353 406 32,000  Level Cleveland Center
Mon 01:34:50 PM 42.8086 -82.7594 284° West 353 406 32,000  Level Cleveland Center
Mon 01:35:50 PM 42.8269 -82.8847 281° West 353 406 32,000  Level Cleveland Center
Mon 01:36:50 PM 42.8472 -83.0131 282° West 353 406 32,000  Level Cleveland Center
Mon 01:37:50 PM 42.8506 -83.1461 272° West 353 406 32,000  Level Cleveland Center
Mon 01:38:50 PM 42.8475 -83.2792 268° West 348 400 32,000  Level Cleveland Center
Mon 01:39:50 PM 42.8467 -83.4094 270° West 348 400 32,000  Level Cleveland Center
Mon 01:40:50 PM 42.8433 -83.5422 268° West 348 400 32,000  Level Cleveland Center
Mon 01:41:50 PM 42.8397 -83.6725 268° West 348 400 32,000  Level Cleveland Center
Mon 01:42:50 PM 42.8361 -83.8025 268° West 348 400 32,000  Level Cleveland Center
Mon 01:43:50 PM 42.8325 -83.9356 268° West 348 400 32,000  Level Cleveland Center
Mon 01:44:50 PM 42.8308 -84.0572 269° West 348 400 32,000  Level Cleveland Center
Mon 01:45:51 PM 42.8269 -84.1844 268° West 348 400 32,000  Level Cleveland Center
Mon 01:46:51 PM 42.8228 -84.3144 268° West 348 400 32,000  Level Cleveland Center
Mon 01:48:36 PM 42.8200 -84.5339 269° West 344 396 32,000  Level Chicago Center
Mon 01:49:38 PM 42.8156 -84.6650 267° West 348 400 32,000  Level Chicago Center
Mon 01:50:39 PM 42.8108 -84.8208 268° West 345 397 32,000  Level Chicago Center
Mon 01:51:41 PM 42.8069 -84.9506 268° West 345 397 32,000  Level Chicago Center
Mon 01:52:43 PM 42.8022 -85.0828 267° West 349 402 32,000  Level Chicago Center
Mon 01:53:45 PM 42.7981 -85.2133 268° West 346 398 32,000  Level Chicago Center
Mon 01:54:47 PM 42.7933 -85.3433 267° West 345 397 32,000  Level Chicago Center
Mon 01:55:49 PM 42.7881 -85.4744 267° West 346 398 32,000  Level Chicago Center
Mon 01:56:51 PM 42.7672 -85.6025 258° West 347 399 32,000 -1,122 Level Chicago Center
Mon 01:57:52 PM 42.7400 -85.7619 257° West 359 413 29,700 -2,390 Descending Chicago Center
Mon 01:58:54 PM 42.7161 -85.8961 256° West 363 418 27,100 -2,419 Descending Chicago Center
Mon 01:59:56 PM 42.6931 -86.0197 256° West 341 392 24,700 -2,274 Descending Chicago Center
Mon 02:00:58 PM 42.6703 -86.1414 256° West 332 382 22,400 -2,226 Descending Chicago Center
Mon 02:02:00 PM 42.6467 -86.2633 255° West 332 382 20,100 -1,887 Descending Chicago Center
Mon 02:03:02 PM 42.6253 -86.3814 256° West 323 372 18,500 -1,452 Descending Chicago Center
Mon 02:04:04 PM 42.6022 -86.5017 255° West 329 379 17,100 -1,355 Descending Chicago Center
Mon 02:05:06 PM 42.5797 -86.6231 256° West 332 382 15,700 -1,500 Descending Chicago Center
Mon 02:06:08 PM 42.5528 -86.7639 255° West 323 372 14,000 -1,500 Descending Chicago Center
Mon 02:07:10 PM 42.5219 -86.8733 249° West 315 362 12,600 -1,355 Descending Chicago Center
Mon 02:08:12 PM 42.4917 -86.9839 250° West 313 360 11,200 -1,258 Descending Chicago Center
Mon 02:09:14 PM 42.4611 -87.0883 248° West 301 346 10,000 -968 Descending Chicago Center
Mon 02:10:16 PM 42.4369 -87.1797 250° West 264 304 9,200 -484 Descending Chicago Center
Mon 02:11:18 PM 42.4214 -87.2697 257° West 248 285 9,000 -435 Descending Chicago Center
Mon 02:12:20 PM 42.3981 -87.3761 253° West 249 287 8,300 -629 Descending Chicago Center
Mon 02:13:22 PM 42.3756 -87.4678 252° West 248 285 7,700 -532 Descending Chicago Center
Mon 02:14:24 PM 42.3278 -87.5267 222° Southwest 244 281 7,200 -339 Descending Chicago Center
Mon 02:15:26 PM 42.2828 -87.5797 221° Southwest 216 249 7,000 -97 Descending Chicago Center
Mon 02:16:28 PM 42.2422 -87.6264 220° Southwest 196 226 7,000 -484 Level Chicago Center
Mon 02:17:30 PM 42.1997 -87.6722 219° Southwest 198 228 6,000 -1,113 Descending Chicago Center
Mon 02:18:32 PM 42.1503 -87.7278 220° Southwest 194 223 4,700 -1,104 Descending Chicago Center
Mon 02:19:35 PM 42.1167 -87.7667 221° Southwest 166 191 3,700 -952 Descending Chicago TRACON

Login

Don't have an account? Register now (free) for customized features, flight alerts, and more!